createdAt,value
2023-04-21T00:01:41.107Z,8.33
2023-04-21T00:04:09.711Z,8.87
2023-04-21T00:06:38.109Z,8.10
2023-04-21T00:09:05.783Z,8.47
2023-04-21T00:11:34.912Z,8.20
2023-04-21T00:14:02.894Z,8.30
2023-04-21T00:16:30.995Z,10.20
2023-04-21T00:18:59.247Z,8.40
2023-04-21T00:21:27.111Z,8.77
2023-04-21T00:23:54.920Z,8.33
2023-04-21T00:26:22.681Z,9.30
2023-04-21T00:28:53.710Z,8.47
2023-04-21T00:31:21.869Z,8.60
2023-04-21T00:33:49.654Z,8.80
2023-04-21T00:36:17.438Z,9.87
2023-04-21T00:38:45.166Z,9.30
2023-04-21T00:41:12.817Z,9.97
2023-04-21T00:43:55.586Z,9.63
2023-04-21T00:46:24.643Z,9.97
2023-04-21T00:48:52.317Z,10.30
2023-04-21T00:51:22.260Z,10.10
2023-04-21T00:53:51.056Z,11.10
2023-04-21T00:56:19.138Z,14.27
2023-04-21T00:58:47.129Z,11.10
2023-04-21T01:01:16.811Z,10.90
2023-04-21T01:03:47.638Z,11.43
2023-04-21T01:06:16.130Z,10.90
2023-04-21T01:08:44.110Z,11.37
2023-04-21T01:11:12.103Z,10.80
2023-04-21T01:13:41.568Z,10.97
2023-04-21T01:16:09.650Z,10.77
2023-04-21T01:18:37.484Z,11.00
2023-04-21T01:21:07.520Z,10.53
2023-04-21T01:23:36.992Z,11.40
2023-04-21T01:26:05.016Z,11.00
2023-04-21T01:28:37.122Z,11.00
2023-04-21T01:31:05.768Z,12.07
2023-04-21T01:33:33.527Z,11.90
2023-04-21T01:36:02.354Z,11.73
2023-04-21T01:38:30.362Z,12.00
2023-04-21T01:41:01.556Z,10.93
2023-04-21T01:43:29.422Z,12.33
2023-04-21T01:45:57.924Z,11.10
2023-04-21T01:48:25.983Z,12.23
2023-04-21T01:50:53.713Z,12.10
2023-04-21T01:53:22.037Z,12.40
2023-04-21T01:55:49.808Z,13.20
2023-04-21T01:58:19.739Z,16.80
2023-04-21T02:00:47.460Z,20.20
2023-04-21T02:03:15.888Z,19.53
2023-04-21T02:05:46.942Z,19.03
2023-04-21T02:08:15.233Z,21.30
2023-04-21T02:10:42.907Z,19.27
2023-04-21T02:13:13.314Z,18.90
2023-04-21T02:15:42.639Z,18.47
2023-04-21T02:18:10.864Z,18.80
2023-04-21T02:20:39.694Z,18.13
2023-04-21T02:23:07.667Z,15.90
2023-04-21T02:25:35.482Z,16.50
2023-04-21T02:28:03.657Z,14.20
2023-04-21T02:30:31.406Z,15.27
2023-04-21T02:33:00.743Z,14.13
2023-04-21T02:35:28.698Z,13.53
2023-04-21T02:37:58.581Z,13.43
2023-04-21T02:40:26.358Z,14.10
2023-04-21T02:42:54.168Z,13.60
2023-04-21T02:45:21.994Z,12.43
2023-04-21T02:47:49.931Z,12.83
2023-04-21T02:50:19.345Z,12.70
2023-04-21T02:52:47.354Z,12.40
2023-04-21T02:55:15.149Z,12.60
2023-04-21T02:57:42.882Z,13.77
2023-04-21T03:00:12.455Z,13.33
2023-04-21T03:02:41.504Z,13.47
2023-04-21T03:05:12.606Z,13.57
2023-04-21T03:07:42.588Z,13.07
2023-04-21T03:10:12.161Z,13.13
2023-04-21T03:12:39.926Z,13.40
2023-04-21T03:15:08.059Z,12.60
2023-04-21T03:17:36.274Z,13.97
2023-04-21T03:20:07.966Z,13.13
2023-04-21T03:22:37.763Z,13.80
2023-04-21T03:25:07.944Z,13.47
2023-04-21T03:27:36.076Z,13.80
2023-04-21T03:30:05.334Z,13.80
2023-04-21T03:32:33.859Z,13.50
2023-04-21T03:35:01.551Z,14.30
2023-04-21T03:37:29.537Z,13.80
2023-04-21T03:39:57.850Z,13.93
2023-04-21T03:42:27.115Z,14.20
2023-04-21T03:44:57.507Z,13.43
2023-04-21T03:47:25.551Z,13.73
2023-04-21T03:49:53.318Z,14.60
2023-04-21T03:52:21.156Z,13.30
2023-04-21T03:54:50.272Z,13.80
2023-04-21T03:57:18.344Z,13.97
2023-04-21T03:59:47.345Z,14.03
2023-04-21T04:02:15.137Z,13.80
2023-04-21T04:04:43.593Z,13.97
2023-04-21T04:07:11.873Z,13.30
2023-04-21T04:09:39.724Z,14.93
2023-04-21T04:12:08.345Z,14.63
2023-04-21T04:14:37.375Z,15.60
2023-04-21T04:17:06.476Z,14.30
2023-04-21T04:19:34.208Z,14.83
2023-04-21T04:22:02.102Z,14.20
2023-04-21T04:24:33.646Z,15.43
2023-04-21T04:27:02.940Z,15.17
2023-04-21T04:29:31.506Z,14.70
2023-04-21T04:32:01.662Z,14.43
2023-04-21T04:34:30.945Z,15.00
2023-04-21T04:36:59.119Z,15.17
2023-04-21T04:39:26.931Z,14.90
2023-04-21T04:41:54.844Z,14.37
2023-04-21T04:44:23.586Z,14.50
2023-04-21T04:46:52.930Z,15.30
2023-04-21T04:49:22.219Z,14.53
2023-04-21T04:51:53.037Z,14.30
2023-04-21T04:54:21.718Z,14.30
2023-04-21T04:56:49.587Z,14.93
2023-04-21T04:59:17.721Z,14.33
2023-04-21T05:01:45.994Z,14.27
2023-04-21T05:04:16.816Z,13.70
2023-04-21T05:06:45.489Z,14.20
2023-04-21T05:09:14.795Z,15.30
2023-04-21T05:11:42.487Z,13.63
2023-04-21T05:14:11.039Z,14.97
2023-04-21T05:16:38.924Z,14.77
2023-04-21T05:19:06.642Z,14.87
2023-04-21T05:21:34.790Z,14.60
2023-04-21T05:24:02.479Z,14.40
2023-04-21T05:26:31.831Z,13.60
2023-04-21T05:29:00.093Z,14.13
2023-04-21T05:31:27.925Z,14.10
2023-04-21T05:33:56.071Z,13.50
2023-04-21T05:36:24.868Z,14.47
2023-04-21T05:38:53.968Z,13.53
2023-04-21T05:41:22.626Z,13.57
2023-04-21T05:43:51.860Z,13.50
2023-04-21T05:46:19.670Z,13.80
2023-04-21T05:48:47.518Z,13.67
2023-04-21T05:51:16.554Z,13.33
2023-04-21T05:53:45.526Z,13.27
2023-04-21T05:56:13.854Z,13.47
2023-04-21T05:58:42.117Z,13.70
2023-04-21T06:01:11.367Z,13.17
2023-04-21T06:03:39.292Z,13.83
2023-04-21T06:06:08.052Z,13.60
2023-04-21T06:08:35.780Z,14.07
2023-04-21T06:11:04.409Z,14.40
2023-04-21T06:13:32.253Z,14.80
2023-04-21T06:16:00.260Z,14.00
2023-04-21T06:18:29.326Z,14.03
2023-04-21T06:20:57.087Z,14.70
2023-04-21T06:23:24.834Z,14.30
2023-04-21T06:26:05.117Z,13.97
2023-04-21T06:28:33.366Z,14.67
2023-04-21T06:31:01.754Z,13.80
2023-04-21T06:33:31.413Z,13.70
2023-04-21T06:35:59.304Z,14.47
2023-04-21T06:38:27.193Z,14.77
2023-04-21T06:40:55.127Z,14.20
2023-04-21T06:43:24.596Z,16.57
2023-04-21T06:45:52.313Z,14.60
2023-04-21T06:48:20.827Z,14.83
2023-04-21T06:50:49.862Z,13.90
2023-04-21T06:53:18.068Z,14.53
2023-04-21T06:55:46.007Z,14.17
2023-04-21T06:58:13.865Z,13.90
2023-04-21T07:00:41.616Z,13.80
2023-04-21T07:03:09.910Z,13.90
2023-04-21T07:05:37.798Z,14.37
2023-04-21T07:08:06.921Z,14.50
2023-04-21T07:10:34.842Z,14.73
2023-04-21T07:13:03.102Z,14.83
2023-04-21T07:15:30.958Z,14.70
2023-04-21T07:17:59.509Z,14.80
2023-04-21T07:20:27.453Z,14.00
2023-04-21T07:22:55.088Z,13.67
2023-04-21T07:25:24.800Z,13.40
2023-04-21T07:27:52.702Z,13.90
2023-04-21T07:30:20.555Z,13.90
2023-04-21T07:32:48.598Z,13.80
2023-04-21T07:35:16.805Z,13.87
2023-04-21T07:37:44.662Z,13.90
2023-04-21T07:40:13.162Z,13.93
2023-04-21T07:42:42.282Z,15.20
2023-04-21T07:45:10.844Z,15.03
2023-04-21T07:47:39.032Z,14.63
2023-04-21T07:50:07.920Z,14.73
2023-04-21T07:52:35.944Z,14.70
2023-04-21T07:55:04.055Z,14.30
2023-04-21T07:57:33.835Z,13.67
2023-04-21T08:00:03.265Z,13.37
2023-04-21T08:02:41.954Z,14.53
2023-04-21T08:05:10.273Z,14.73
2023-04-21T08:07:38.160Z,13.90
2023-04-21T08:10:06.577Z,14.20
2023-04-21T08:12:34.281Z,13.07
2023-04-21T08:15:05.918Z,13.23
2023-04-21T08:17:33.761Z,13.40
2023-04-21T08:20:01.566Z,12.77
2023-04-21T08:22:29.794Z,13.83
2023-04-21T08:24:57.574Z,14.73
2023-04-21T08:27:25.315Z,13.67
2023-04-21T08:29:52.979Z,13.90
2023-04-21T08:32:24.663Z,14.00
2023-04-21T08:34:53.574Z,14.37
2023-04-21T08:37:21.808Z,13.83
2023-04-21T08:39:50.776Z,13.80
2023-04-21T08:42:19.005Z,12.83
2023-04-21T08:44:46.820Z,13.70
2023-04-21T08:47:15.475Z,13.37
2023-04-21T08:49:45.680Z,13.20
2023-04-21T08:52:14.509Z,13.87
2023-04-21T08:54:42.347Z,13.60
2023-04-21T08:57:15.363Z,12.60
2023-04-21T08:59:45.225Z,13.27
2023-04-21T09:02:15.218Z,12.33
2023-04-21T09:04:44.056Z,12.70
2023-04-21T09:07:13.796Z,12.63
2023-04-21T09:09:56.511Z,12.70
2023-04-21T09:12:24.961Z,13.13
2023-04-21T09:14:52.606Z,12.87
2023-04-21T09:17:22.931Z,13.23
2023-04-21T09:19:51.948Z,12.93
2023-04-21T09:22:20.982Z,11.80
2023-04-21T09:24:49.482Z,11.40
2023-04-21T09:27:17.875Z,12.57
2023-04-21T09:29:49.411Z,12.40
2023-04-21T09:32:20.469Z,12.53
2023-04-21T09:34:48.527Z,12.23
2023-04-21T09:37:18.745Z,12.00
2023-04-21T09:40:03.382Z,12.60
2023-04-21T09:42:36.109Z,11.07
2023-04-21T09:47:41.114Z,11.80
2023-04-21T09:50:12.522Z,12.63
2023-04-21T09:52:41.371Z,11.20
2023-04-21T09:55:12.422Z,12.40
2023-04-21T09:57:41.022Z,11.77
2023-04-21T10:00:09.731Z,11.50
2023-04-21T10:02:39.658Z,11.47
2023-04-21T10:05:08.495Z,12.80
2023-04-21T10:07:36.432Z,11.67
2023-04-21T10:10:04.504Z,11.53
2023-04-21T10:12:34.365Z,11.57
2023-04-21T10:15:05.543Z,12.57
2023-04-21T10:17:36.602Z,11.07
2023-04-21T10:20:07.879Z,10.87
2023-04-21T10:22:36.205Z,10.30
2023-04-21T10:25:04.933Z,10.77
2023-04-21T10:27:34.940Z,11.43
2023-04-21T10:30:03.188Z,10.70
2023-04-21T10:32:42.409Z,10.50
2023-04-21T10:35:10.853Z,10.63
2023-04-21T10:37:38.623Z,11.10
2023-04-21T10:40:09.976Z,10.33
2023-04-21T10:42:39.094Z,10.50
2023-04-21T10:45:13.967Z,11.63
2023-04-21T10:47:44.058Z,12.20
2023-04-21T10:50:13.422Z,10.17
2023-04-21T10:52:44.629Z,11.10
2023-04-21T10:55:15.950Z,11.07
2023-04-21T10:57:46.172Z,10.30
2023-04-21T11:00:18.059Z,10.70
2023-04-21T11:02:46.072Z,10.60
2023-04-21T11:05:14.567Z,12.50
2023-04-21T11:07:42.939Z,10.50
2023-04-21T11:10:11.763Z,10.07
2023-04-21T11:12:40.286Z,11.10
2023-04-21T11:15:11.116Z,11.70
2023-04-21T11:17:39.817Z,9.57
2023-04-21T11:20:08.720Z,9.43
2023-04-21T11:22:38.107Z,10.07
2023-04-21T11:25:06.447Z,9.60
2023-04-21T11:27:34.140Z,10.27
2023-04-21T11:30:03.788Z,10.43
2023-04-21T11:32:34.671Z,10.60
2023-04-21T11:35:04.580Z,9.70
2023-04-21T11:37:32.693Z,10.17
2023-04-21T11:40:01.114Z,10.60
2023-04-21T11:42:29.929Z,10.70
2023-04-21T11:44:57.828Z,10.27
2023-04-21T11:47:26.820Z,10.53
2023-04-21T11:49:56.739Z,11.00
2023-04-21T11:52:25.479Z,11.03
2023-04-21T11:54:57.840Z,10.27
2023-04-21T11:57:26.314Z,9.63
2023-04-21T11:59:54.175Z,9.70
2023-04-21T12:02:23.870Z,10.27
2023-04-21T12:05:00.296Z,9.97
2023-04-21T12:07:30.620Z,9.60
2023-04-21T12:09:58.756Z,10.17
2023-04-21T12:12:26.668Z,10.13
2023-04-21T12:14:54.580Z,10.00
2023-04-21T12:17:22.447Z,9.40
2023-04-21T12:19:50.739Z,9.20
2023-04-21T12:22:20.259Z,9.67
2023-04-21T12:24:48.003Z,9.90
2023-04-21T12:27:16.145Z,9.53
2023-04-21T12:29:44.224Z,9.47
2023-04-21T12:32:12.158Z,9.97
2023-04-21T12:34:40.136Z,9.17
2023-04-21T12:37:09.015Z,9.63
2023-04-21T12:39:38.084Z,9.30
2023-04-21T12:42:06.402Z,9.50
2023-04-21T12:44:34.665Z,9.80
2023-04-21T12:47:02.583Z,9.30
2023-04-21T12:49:30.950Z,9.20
2023-04-21T12:51:59.130Z,9.20
2023-04-21T12:54:26.941Z,8.80
2023-04-21T12:56:56.121Z,8.30
2023-04-21T12:59:24.291Z,8.23
2023-04-21T13:01:52.250Z,9.30
2023-04-21T13:04:20.455Z,9.60
2023-04-21T13:06:48.901Z,9.27
2023-04-21T13:09:17.219Z,7.73
2023-04-21T13:11:44.890Z,8.37
2023-04-21T13:14:15.817Z,10.17
2023-04-21T13:16:44.070Z,8.70
2023-04-21T13:19:11.735Z,8.63
2023-04-21T13:21:41.586Z,7.90
2023-04-21T13:24:11.253Z,9.00
2023-04-21T13:26:41.075Z,9.30
2023-04-21T13:29:09.116Z,9.43
2023-04-21T13:31:38.409Z,8.93
2023-04-21T13:34:06.412Z,9.10
2023-04-21T13:36:34.197Z,8.60
2023-04-21T13:39:03.733Z,8.70
2023-04-21T13:41:31.568Z,8.50
2023-04-21T13:43:59.326Z,9.23
2023-04-21T13:46:27.518Z,8.70
2023-04-21T13:48:56.643Z,9.30
2023-04-21T13:51:24.346Z,9.90
2023-04-21T13:53:52.120Z,9.50
2023-04-21T13:56:20.231Z,9.33
2023-04-21T13:58:48.144Z,9.00
2023-04-21T14:01:16.004Z,8.90
2023-04-21T14:03:44.089Z,8.50
2023-04-21T14:06:13.363Z,8.53
2023-04-21T14:08:41.251Z,8.37
2023-04-21T14:11:09.476Z,8.27
2023-04-21T14:13:42.507Z,8.70
2023-04-21T14:16:20.402Z,8.17
2023-04-21T14:18:48.080Z,9.50
2023-04-21T14:21:17.352Z,8.30
2023-04-21T14:23:45.606Z,9.00
2023-04-21T14:26:13.510Z,8.73
2023-04-21T14:28:41.615Z,11.97
2023-04-21T14:31:09.432Z,8.00
2023-04-21T14:33:37.729Z,8.30
2023-04-21T14:36:05.536Z,8.67
2023-04-21T14:38:35.809Z,8.37
2023-04-21T14:41:03.759Z,8.50
2023-04-21T14:43:32.519Z,9.00
2023-04-21T14:46:00.595Z,8.27
2023-04-21T14:48:28.440Z,8.50
2023-04-21T14:50:57.808Z,8.83
2023-04-21T14:53:25.924Z,8.40
2023-04-21T14:55:55.220Z,7.97
2023-04-21T14:58:24.194Z,7.93
2023-04-21T15:00:52.522Z,9.27
2023-04-21T15:03:20.652Z,8.47
2023-04-21T15:05:48.475Z,8.00
2023-04-21T15:08:18.460Z,9.00
2023-04-21T15:10:47.627Z,8.27
2023-04-21T15:13:17.045Z,7.20
2023-04-21T15:15:45.435Z,8.40
2023-04-21T15:18:13.114Z,7.90
2023-04-21T15:20:45.580Z,7.53
2023-04-21T15:23:14.122Z,8.00
2023-04-21T15:25:42.401Z,7.90
2023-04-21T15:28:10.290Z,7.83
2023-04-21T15:30:39.953Z,7.90
2023-04-21T15:33:08.044Z,8.27
2023-04-21T15:35:36.305Z,8.57
2023-04-21T15:38:04.764Z,7.87
2023-04-21T15:40:32.522Z,8.37
2023-04-21T15:43:00.388Z,7.97
2023-04-21T15:45:28.210Z,7.97
2023-04-21T15:47:57.427Z,8.37
2023-04-21T15:50:25.657Z,8.30
2023-04-21T15:52:53.716Z,8.40
2023-04-21T15:55:21.604Z,8.80
2023-04-21T15:57:49.328Z,8.07
2023-04-21T16:00:17.380Z,8.27
2023-04-21T16:02:45.291Z,8.07
2023-04-21T16:05:14.658Z,8.03
2023-04-21T16:07:43.486Z,7.40
2023-04-21T16:10:11.849Z,7.90
2023-04-21T16:12:39.682Z,7.60
2023-04-21T16:15:23.043Z,7.93
2023-04-21T16:17:52.308Z,8.17
2023-04-21T16:20:21.860Z,7.83
2023-04-21T16:22:49.880Z,8.10
2023-04-21T16:25:19.132Z,7.40
2023-04-21T16:27:47.148Z,7.33
2023-04-21T16:30:14.931Z,7.03
2023-04-21T16:32:42.767Z,7.60
2023-04-21T16:35:11.700Z,7.33
2023-04-21T16:37:42.547Z,7.50
2023-04-21T16:40:11.461Z,8.03
2023-04-21T16:42:39.499Z,9.87
2023-04-21T16:45:08.029Z,7.60
2023-04-21T16:47:41.288Z,7.83
2023-04-21T16:50:10.362Z,7.23
2023-04-21T16:52:38.413Z,7.67
2023-04-21T16:55:08.121Z,8.60
2023-04-21T16:57:36.231Z,7.57
2023-04-21T17:00:07.322Z,7.57
2023-04-21T17:02:35.332Z,6.83
2023-04-21T17:05:04.037Z,7.23
2023-04-21T17:07:32.647Z,6.60
2023-04-21T17:10:00.579Z,7.30
2023-04-21T17:12:29.918Z,7.60
2023-04-21T17:14:58.032Z,7.00
2023-04-21T17:17:25.710Z,7.60
2023-04-21T17:19:53.694Z,7.33
2023-04-21T17:22:21.931Z,6.90
2023-04-21T17:24:53.684Z,7.00
2023-04-21T17:27:22.541Z,7.60
2023-04-21T17:29:52.152Z,6.73
2023-04-21T17:32:20.089Z,6.97
2023-04-21T17:34:48.130Z,7.07
2023-04-21T17:37:15.920Z,6.63
2023-04-21T17:39:43.861Z,7.20
2023-04-21T17:42:12.105Z,7.20
2023-04-21T17:44:41.029Z,6.97
2023-04-21T17:47:10.459Z,7.73
2023-04-21T17:49:38.632Z,7.60
2023-04-21T17:52:06.508Z,7.20
2023-04-21T17:54:34.229Z,7.20
2023-04-21T17:57:02.738Z,7.20
2023-04-21T17:59:30.628Z,7.27
2023-04-21T18:01:59.136Z,7.80
2023-04-21T18:04:30.927Z,7.40
2023-04-21T18:06:59.606Z,7.80
2023-04-21T18:09:27.369Z,7.67
2023-04-21T18:11:55.394Z,7.10
2023-04-21T18:14:23.678Z,7.87
2023-04-21T18:16:51.649Z,6.90
2023-04-21T18:19:19.705Z,7.20
2023-04-21T18:21:48.858Z,7.00
2023-04-21T18:24:16.698Z,7.70
2023-04-21T18:26:44.906Z,7.60
2023-04-21T18:29:12.593Z,6.90
2023-04-21T18:31:40.819Z,6.90
2023-04-21T18:34:09.080Z,10.80
2023-04-21T18:36:39.033Z,12.27
2023-04-21T18:39:08.021Z,8.27
2023-04-21T18:41:37.107Z,7.63
2023-04-21T18:44:05.734Z,7.90
2023-04-21T18:46:34.040Z,8.27
2023-04-21T18:49:02.050Z,7.90
2023-04-21T18:51:31.519Z,12.83
2023-04-21T18:53:59.374Z,9.90
2023-04-21T18:56:31.340Z,11.97
2023-04-21T18:58:59.199Z,8.77
2023-04-21T19:01:27.031Z,7.63
2023-04-21T19:03:55.347Z,8.50
2023-04-21T19:06:23.215Z,8.93
2023-04-21T19:08:52.801Z,9.13
2023-04-21T19:11:20.896Z,8.40
2023-04-21T19:13:50.021Z,8.13
2023-04-21T19:16:17.762Z,7.23
2023-04-21T19:18:47.465Z,8.60
2023-04-21T19:21:15.268Z,8.20
2023-04-21T19:23:44.395Z,7.93
2023-04-21T19:26:13.464Z,8.57
2023-04-21T19:28:41.528Z,9.00
2023-04-21T19:31:11.043Z,7.50
2023-04-21T19:33:39.370Z,8.43
2023-04-21T19:36:07.411Z,9.80
2023-04-21T19:38:36.117Z,9.53
2023-04-21T19:41:04.182Z,10.47
2023-04-21T19:43:32.118Z,11.40
2023-04-21T19:45:59.938Z,8.20
2023-04-21T19:48:29.124Z,8.10
2023-04-21T19:50:56.991Z,8.37
2023-04-21T19:53:25.007Z,8.30
2023-04-21T19:55:53.005Z,9.33
2023-04-21T19:58:38.304Z,9.50
2023-04-21T20:01:07.809Z,8.97
2023-04-21T20:03:37.818Z,8.10
2023-04-21T20:06:06.198Z,7.60
2023-04-21T20:08:33.991Z,7.70
2023-04-21T20:11:02.277Z,8.10
2023-04-21T20:13:30.055Z,7.80
2023-04-21T20:15:58.176Z,7.80
2023-04-21T20:18:26.164Z,8.47
2023-04-21T20:20:55.235Z,9.70
2023-04-21T20:23:23.388Z,9.90
2023-04-21T20:25:51.918Z,9.77
2023-04-21T20:28:20.530Z,8.30
2023-04-21T20:30:48.248Z,8.63
2023-04-21T20:33:17.326Z,9.20
2023-04-21T20:35:46.073Z,9.43
2023-04-21T20:38:15.911Z,9.20
2023-04-21T20:40:44.229Z,8.47
2023-04-21T20:43:12.275Z,9.77
2023-04-21T20:45:41.196Z,9.30
2023-04-21T20:48:09.791Z,9.77
2023-04-21T20:50:37.636Z,9.37
2023-04-21T20:53:07.372Z,10.50
2023-04-21T20:55:38.303Z,9.00
2023-04-21T20:58:06.002Z,9.13
2023-04-21T21:00:34.527Z,10.03
2023-04-21T21:03:03.815Z,9.70
2023-04-21T21:05:33.399Z,9.50
2023-04-21T21:08:01.198Z,9.13
2023-04-21T21:10:29.263Z,10.90
2023-04-21T21:12:59.571Z,10.60
2023-04-21T21:15:27.833Z,9.70
2023-04-21T21:17:55.788Z,9.23
2023-04-21T21:20:23.490Z,9.70
2023-04-21T21:22:51.260Z,9.60
2023-04-21T21:25:19.134Z,8.97
2023-04-21T21:27:46.993Z,9.10
2023-04-21T21:30:16.320Z,10.30
2023-04-21T21:32:44.393Z,9.57
2023-04-21T21:35:12.207Z,9.40
2023-04-21T21:37:40.418Z,9.30
2023-04-21T21:40:09.234Z,10.13
2023-04-21T21:42:37.271Z,9.73
2023-04-21T21:45:05.329Z,10.33
2023-04-21T21:47:39.430Z,9.50
2023-04-21T21:50:11.162Z,10.87
2023-04-21T21:52:39.352Z,11.27
2023-04-21T21:55:07.795Z,12.43
2023-04-21T21:57:35.921Z,11.50
2023-04-21T22:00:04.083Z,10.43
2023-04-21T22:02:32.837Z,9.40
2023-04-21T22:05:02.003Z,10.80
2023-04-21T22:07:29.990Z,10.70
2023-04-21T22:09:59.647Z,10.43
2023-04-21T22:12:27.829Z,9.80
2023-04-21T22:14:55.648Z,11.60
2023-04-21T22:17:24.893Z,10.03
2023-04-21T22:19:53.699Z,9.80
2023-04-21T22:22:22.915Z,9.90
2023-04-21T22:24:50.940Z,10.10
2023-04-21T22:27:18.739Z,10.50
2023-04-21T22:29:46.891Z,12.20
2023-04-21T22:32:15.099Z,11.73
2023-04-21T22:34:43.173Z,11.03
2023-04-21T22:37:11.085Z,10.93
2023-04-21T22:39:40.552Z,9.77
2023-04-21T22:42:08.569Z,11.33
2023-04-21T22:44:36.652Z,11.30
2023-04-21T22:47:04.642Z,10.80
2023-04-21T22:49:33.128Z,11.23
2023-04-21T22:52:00.826Z,11.73
2023-04-21T22:54:29.492Z,10.20
2023-04-21T22:56:58.587Z,10.37
2023-04-21T22:59:26.327Z,10.90
2023-04-21T23:01:54.310Z,9.83
2023-04-21T23:04:22.105Z,11.53
2023-04-21T23:06:49.820Z,10.77
2023-04-21T23:09:17.947Z,10.50
2023-04-21T23:11:45.602Z,9.67
2023-04-21T23:14:15.178Z,9.97
2023-04-21T23:16:42.911Z,9.57
2023-04-21T23:19:10.749Z,9.90
2023-04-21T23:21:38.938Z,10.40
2023-04-21T23:24:07.063Z,10.77
2023-04-21T23:26:34.708Z,12.17
2023-04-21T23:29:02.932Z,9.33
2023-04-21T23:31:32.402Z,9.90
2023-04-21T23:34:00.628Z,10.00
2023-04-21T23:36:28.856Z,9.87
2023-04-21T23:38:56.532Z,9.50
2023-04-21T23:41:24.406Z,11.73
2023-04-21T23:43:52.505Z,10.30
2023-04-21T23:46:20.260Z,17.70
2023-04-21T23:48:49.680Z,13.70
2023-04-21T23:51:17.727Z,11.17
2023-04-21T23:53:45.608Z,10.30
2023-04-21T23:56:13.345Z,10.53
2023-04-21T23:58:41.480Z,10.60
